Aérodrome :
LOGIN :

S'inscrire | Disclaimer

   EN    FR    IT 

 










Légende :    VFR   VFR Marginal   IFR   IFR Intensif   IFR Très Intensif
Visi : 
Plafond : 
>= 8 km
>= 3000ft
5 à 8 km
1000 à 3000 ft
1500m à 5 km
500 à 1000 ft
800 à 1500m
200 à 500 ft
< 800m
< 200 ft
Symboles :   Orages  Brouillard  Fortes neiges  Fortes précipitations  Vent > 20 kt
SIGMETs :   Divers  Orages  Givrage  Turbulence  Onde Orograph.  Cendres Volcan.






- Altitude de l'aérodrome : 1649 ft
- Code IATA : HHN


EDFH - Frankfurt-Hahn Rhineland-Palatinate

DERNIER METAR :
  • 210150Z 16006KT 100V220 9999 FEW013 13/12 Q1011

METARs EXPIRÉS :
  • 210120Z 17008G18KT 140V210 9999 -RA FEW003 SCT040 13/13 Q1011
  • 210050Z 16011KT 9999 FEW003 12/12 Q1011
  • 210020Z 16011KT 9999 FEW003 13/13 Q1010
  • 202350Z 15012KT 9999 FEW010 13/13 Q1010
  • 202320Z 15011KT 9999 BKN010 13/13 Q1010

TAF TAF EDFH
Valide du 21 à 00h jusqu'au 22 à 00h UTC


202300Z 2100/2124 16010KT 7000 SCT002 BKN020
TEMPO 2100/2109 1200 BCFG BKN002
PROB30
TEMPO 2100/2108 0300 FG BKN001
BECMG 2104/2107 22010KT



MET'MAP, la Météo Aéronautique d'un coup d'oeil ! - Copyright ORBIFLY Décembre 2007 - Disclaimer

ORBIFLY MET'MAP TEAM :

Programmation & Développement : Alexandra Zaïnal
Conception & Développement : Baudouin d'Aumeries
Co-Programmation & Développement : Marc-Olivier Méhu
Soutien technique & logistique : Manuel Goepfert

Contact : metmap@orbifly.com




SOURCES & CREDITS :

   NOAA